createdAt,value
2023-02-05T00:01:30.703Z,17.33
2023-02-05T00:03:58.299Z,21.00
2023-02-05T00:06:28.070Z,18.60
2023-02-05T00:08:57.451Z,14.60
2023-02-05T00:11:25.262Z,13.85
2023-02-05T00:13:53.212Z,16.40
2023-02-05T00:16:23.964Z,15.00
2023-02-05T00:18:52.026Z,12.50
2023-02-05T00:21:20.427Z,13.15
2023-02-05T00:23:48.209Z,13.10
2023-02-05T00:26:15.414Z,12.25
2023-02-05T00:28:43.449Z,16.70
2023-02-05T00:31:21.555Z,16.15
2023-02-05T00:33:50.628Z,14.02
2023-02-05T00:36:19.063Z,19.83
2023-02-05T00:38:48.367Z,14.82
2023-02-05T00:41:16.109Z,18.25
2023-02-05T00:43:43.949Z,13.68
2023-02-05T00:46:12.562Z,14.88
2023-02-05T00:48:40.346Z,12.85
2023-02-05T00:51:10.015Z,17.25
2023-02-05T00:53:37.363Z,15.35
2023-02-05T00:56:04.803Z,17.20
2023-02-05T00:58:32.220Z,16.08
2023-02-05T01:00:59.255Z,13.43
2023-02-05T01:03:27.704Z,14.52
2023-02-05T01:05:54.761Z,16.73
2023-02-05T01:08:21.878Z,16.30
2023-02-05T01:10:50.938Z,17.45
2023-02-05T01:13:18.758Z,18.90
2023-02-05T01:15:46.293Z,15.73
2023-02-05T01:18:13.795Z,17.58
2023-02-05T01:20:42.238Z,16.48
2023-02-05T01:23:10.312Z,18.50
2023-02-05T01:25:37.877Z,15.43
2023-02-05T01:28:06.787Z,12.07
2023-02-05T01:30:35.015Z,20.13
2023-02-05T01:33:02.511Z,15.85
2023-02-05T01:35:29.745Z,16.27
2023-02-05T01:37:57.010Z,15.77
2023-02-05T01:40:24.674Z,18.85
2023-02-05T01:42:51.773Z,14.23
2023-02-05T01:45:32.621Z,14.23
2023-02-05T01:48:02.394Z,14.80
2023-02-05T01:50:48.964Z,16.38
2023-02-05T01:53:26.540Z,14.88
2023-02-05T01:56:18.771Z,12.82
2023-02-05T01:58:51.004Z,15.55
2023-02-05T02:01:18.099Z,22.02
2023-02-05T02:03:45.877Z,12.82
2023-02-05T02:06:12.873Z,12.95
2023-02-05T02:08:40.685Z,12.93
2023-02-05T02:11:10.319Z,11.82
2023-02-05T02:13:39.124Z,16.25
2023-02-05T02:16:07.925Z,12.57
2023-02-05T02:18:38.132Z,11.02
2023-02-05T02:21:15.970Z,8.52
2023-02-05T02:23:48.965Z,9.45
2023-02-05T02:26:19.039Z,8.25
2023-02-05T02:28:50.831Z,8.45
2023-02-05T02:34:06.611Z,9.02
2023-02-05T02:37:12.073Z,7.63
2023-02-05T02:40:03.420Z,4.05
2023-02-05T02:42:59.923Z,5.38
2023-02-05T02:45:31.100Z,6.30
2023-02-05T02:48:00.319Z,7.88
2023-02-05T02:50:35.388Z,5.40
2023-02-05T02:53:09.406Z,4.20
2023-02-05T02:55:43.700Z,9.80
2023-02-05T02:58:20.215Z,4.78
2023-02-05T03:00:49.332Z,3.50
2023-02-05T03:03:20.558Z,6.70
2023-02-05T03:05:49.856Z,3.63
2023-02-05T03:08:26.232Z,4.38
2023-02-05T03:11:02.629Z,4.40
2023-02-05T03:13:31.214Z,4.13
2023-02-05T03:16:01.104Z,4.70
2023-02-05T03:18:29.490Z,3.45
2023-02-05T03:21:03.292Z,4.25
2023-02-05T03:23:32.223Z,3.03
2023-02-05T03:25:59.336Z,4.28
2023-02-05T03:28:43.015Z,6.07
2023-02-05T03:31:18.823Z,2.40
2023-02-05T03:34:04.443Z,3.50
2023-02-05T03:36:56.641Z,2.45
2023-02-05T03:39:43.103Z,2.35
2023-02-05T03:42:31.621Z,2.17
2023-02-05T03:45:10.526Z,3.50
2023-02-05T03:48:01.489Z,3.17
2023-02-05T03:50:51.482Z,6.68
2023-02-05T03:53:36.524Z,2.10
2023-02-05T03:56:14.378Z,4.80
2023-02-05T03:58:49.712Z,5.30
2023-02-05T04:01:20.148Z,3.22
2023-02-05T04:03:48.609Z,4.50
2023-02-05T04:06:15.946Z,4.15
2023-02-05T04:08:44.678Z,2.60
2023-02-05T04:11:12.583Z,4.60
2023-02-05T04:13:43.198Z,6.13
2023-02-05T04:16:12.268Z,3.88
2023-02-05T04:18:39.902Z,3.17
2023-02-05T04:21:07.318Z,3.47
2023-02-05T04:23:38.318Z,2.97
2023-02-05T04:26:05.924Z,4.32
2023-02-05T04:28:39.562Z,10.73
2023-02-05T04:31:12.533Z,7.53
2023-02-05T04:33:42.390Z,4.03
2023-02-05T04:36:12.222Z,8.70
2023-02-05T04:38:39.867Z,10.20
2023-02-05T04:41:08.074Z,4.72
2023-02-05T04:43:35.367Z,5.95
2023-02-05T04:46:09.947Z,4.20
2023-02-05T04:48:37.276Z,5.40
2023-02-05T04:51:09.331Z,5.70
2023-02-05T04:53:37.912Z,7.60
2023-02-05T04:56:09.619Z,4.80
2023-02-05T04:58:36.831Z,6.70
2023-02-05T05:01:04.693Z,6.38
2023-02-05T05:03:31.801Z,9.90
2023-02-05T05:06:04.891Z,6.63
2023-02-05T05:08:32.509Z,7.18
2023-02-05T05:11:00.940Z,6.88
2023-02-05T05:13:27.911Z,8.40
2023-02-05T05:15:56.222Z,8.45
2023-02-05T05:18:23.493Z,5.75
2023-02-05T05:20:51.619Z,5.20
2023-02-05T05:23:18.672Z,7.85
2023-02-05T05:25:47.175Z,6.07
2023-02-05T05:28:19.855Z,5.85
2023-02-05T05:30:50.829Z,4.60
2023-02-05T05:33:20.811Z,4.78
2023-02-05T05:35:47.810Z,4.05
2023-02-05T05:38:14.780Z,5.93
2023-02-05T05:41:00.255Z,1.95
2023-02-05T05:43:46.268Z,2.13
2023-02-05T05:46:31.965Z,1.50
2023-02-05T05:49:03.119Z,1.67
2023-02-05T05:51:32.874Z,0.57
2023-02-05T05:54:00.100Z,2.20
2023-02-05T05:56:27.177Z,1.42
2023-02-05T05:58:55.154Z,2.45
2023-02-05T06:01:23.048Z,1.27
2023-02-05T06:03:50.676Z,2.45
2023-02-05T06:06:17.818Z,1.98
2023-02-05T06:08:47.533Z,3.40
2023-02-05T06:11:17.163Z,4.28
2023-02-05T06:13:50.149Z,5.78
2023-02-05T06:16:19.700Z,10.20
2023-02-05T06:18:46.786Z,4.03
2023-02-05T06:21:18.074Z,8.38
2023-02-05T06:23:45.180Z,2.70
2023-02-05T06:26:12.219Z,3.63
2023-02-05T06:28:39.278Z,4.80
2023-02-05T06:31:06.510Z,7.88
2023-02-05T06:33:35.426Z,6.07
2023-02-05T06:36:09.548Z,4.55
2023-02-05T06:38:37.014Z,4.10
2023-02-05T06:41:04.525Z,1.35
2023-02-05T06:43:31.525Z,6.85
2023-02-05T06:45:58.516Z,10.18
2023-02-05T06:48:25.699Z,1.52
2023-02-05T06:50:56.104Z,2.00
2023-02-05T06:53:23.260Z,3.92
2023-02-05T06:55:50.222Z,3.08
2023-02-05T06:58:17.177Z,2.20
2023-02-05T07:00:44.122Z,3.10
2023-02-05T07:03:18.494Z,13.65
2023-02-05T07:05:47.901Z,1.70
2023-02-05T07:08:14.998Z,5.95
2023-02-05T07:10:43.705Z,4.90
2023-02-05T07:13:10.952Z,3.13
2023-02-05T07:15:38.379Z,4.20
2023-02-05T07:18:05.772Z,5.88
2023-02-05T07:20:34.132Z,4.80
2023-02-05T07:23:01.307Z,3.25
2023-02-05T07:25:28.528Z,5.10
2023-02-05T07:27:55.676Z,4.88
2023-02-05T07:30:22.708Z,3.63
2023-02-05T07:32:58.608Z,4.13
2023-02-05T07:35:28.225Z,4.53
2023-02-05T07:38:05.340Z,6.35
2023-02-05T07:40:32.792Z,4.30
2023-02-05T07:43:00.165Z,7.60
2023-02-05T07:45:27.194Z,8.10
2023-02-05T07:47:54.334Z,3.60
2023-02-05T07:50:21.397Z,3.95
2023-02-05T07:52:48.474Z,7.00
2023-02-05T07:55:15.725Z,2.17
2023-02-05T07:57:42.990Z,2.20
2023-02-05T08:00:10.504Z,2.60
2023-02-05T08:02:40.823Z,4.57
2023-02-05T08:05:08.295Z,3.13
2023-02-05T08:07:36.143Z,4.60
2023-02-05T08:10:04.313Z,5.82
2023-02-05T08:12:31.337Z,11.70
2023-02-05T08:14:58.462Z,12.18
2023-02-05T08:17:28.538Z,5.38
2023-02-05T08:19:56.294Z,7.57
2023-02-05T08:22:23.255Z,3.13
2023-02-05T08:24:50.403Z,5.55
2023-02-05T08:27:17.340Z,4.55
2023-02-05T08:29:50.289Z,5.55
2023-02-05T08:32:17.410Z,6.70
2023-02-05T08:34:44.373Z,10.40
2023-02-05T08:37:11.773Z,11.73
2023-02-05T08:39:38.925Z,5.30
2023-02-05T08:42:06.319Z,6.85
2023-02-05T08:44:33.438Z,7.15
2023-02-05T08:47:00.556Z,4.00
2023-02-05T08:49:27.719Z,5.13
2023-02-05T08:51:54.929Z,8.40
2023-02-05T08:54:28.428Z,6.05
2023-02-05T08:56:56.072Z,6.68
2023-02-05T08:59:26.948Z,6.03
2023-02-05T09:01:54.889Z,7.60
2023-02-05T09:04:23.516Z,7.18
2023-02-05T09:07:03.540Z,5.72
2023-02-05T09:09:32.415Z,10.65
2023-02-05T09:11:59.487Z,14.02
2023-02-05T09:14:28.828Z,9.68
2023-02-05T09:16:55.895Z,9.77
2023-02-05T09:19:24.103Z,6.28
2023-02-05T09:21:53.932Z,12.10
2023-02-05T09:24:21.235Z,9.35
2023-02-05T09:26:48.524Z,8.52
2023-02-05T09:29:15.932Z,7.10
2023-02-05T09:31:43.018Z,11.38
2023-02-05T09:34:10.060Z,11.48
2023-02-05T09:36:46.308Z,11.68
2023-02-05T09:39:34.616Z,17.98
2023-02-05T09:42:23.152Z,10.57
2023-02-05T09:45:20.618Z,7.78
2023-02-05T09:48:07.953Z,7.70
2023-02-05T09:50:42.516Z,12.13
2023-02-05T09:53:15.768Z,7.35
2023-02-05T09:55:46.080Z,11.35
2023-02-05T09:58:31.470Z,16.13
2023-02-05T10:01:11.981Z,16.73
2023-02-05T10:04:10.182Z,10.40
2023-02-05T10:07:16.234Z,14.35
2023-02-05T10:10:04.491Z,8.55
2023-02-05T10:13:07.059Z,10.38
2023-02-05T10:15:54.007Z,9.02
2023-02-05T10:18:50.975Z,9.18
2023-02-05T10:21:27.185Z,15.05
2023-02-05T10:24:13.768Z,14.73
2023-02-05T10:26:53.005Z,13.00
2023-02-05T10:29:48.755Z,11.60
2023-02-05T10:32:24.205Z,12.85
2023-02-05T10:34:57.360Z,6.63
2023-02-05T10:37:50.570Z,15.13
2023-02-05T10:40:22.423Z,14.30
2023-02-05T10:43:07.003Z,11.50
2023-02-05T10:45:34.567Z,11.32
2023-02-05T10:48:28.927Z,11.95
2023-02-05T10:51:04.194Z,8.07
2023-02-05T10:53:32.643Z,8.95
2023-02-05T10:56:01.960Z,13.65
2023-02-05T10:58:53.188Z,10.55
2023-02-05T11:01:32.389Z,8.67
2023-02-05T11:04:15.252Z,9.02
2023-02-05T11:06:49.414Z,19.13
2023-02-05T11:09:25.466Z,16.20
2023-02-05T11:11:53.187Z,8.80
2023-02-05T11:14:28.373Z,5.57
2023-02-05T11:16:55.516Z,8.30
2023-02-05T11:19:26.711Z,14.40
2023-02-05T11:22:28.328Z,6.68
2023-02-05T11:25:05.913Z,9.90
2023-02-05T11:27:36.385Z,9.38
2023-02-05T11:30:49.706Z,4.57
2023-02-05T11:33:33.543Z,5.43
2023-02-05T11:36:15.037Z,10.45
2023-02-05T11:38:48.818Z,19.42
2023-02-05T11:41:48.006Z,11.55
2023-02-05T11:44:26.031Z,15.48
2023-02-05T11:46:57.025Z,14.18
2023-02-05T11:49:38.534Z,13.52
2023-02-05T11:52:12.934Z,16.45
2023-02-05T11:54:46.098Z,13.50
2023-02-05T11:57:21.699Z,6.53
2023-02-05T11:59:58.026Z,16.67
2023-02-05T12:02:30.309Z,15.93
2023-02-05T12:05:09.851Z,11.75
2023-02-05T12:07:43.923Z,13.85
2023-02-05T12:10:26.394Z,10.57
2023-02-05T12:13:03.953Z,10.82
2023-02-05T12:15:42.880Z,14.00
2023-02-05T12:18:21.713Z,10.52
2023-02-05T12:21:24.773Z,4.03
2023-02-05T12:23:54.799Z,6.80
2023-02-05T12:26:38.938Z,7.03
2023-02-05T12:29:44.617Z,6.88
2023-02-05T12:32:54.773Z,8.25
2023-02-05T12:36:07.091Z,5.18
2023-02-05T12:39:03.738Z,8.27
2023-02-05T12:42:02.402Z,14.07
2023-02-05T12:44:58.420Z,12.48
2023-02-05T12:48:10.413Z,9.95
2023-02-05T12:50:56.067Z,9.55
2023-02-05T12:54:04.213Z,5.43
2023-02-05T12:56:37.526Z,7.05
2023-02-05T12:59:41.763Z,5.47
2023-02-05T13:02:26.305Z,4.05
2023-02-05T13:04:59.447Z,6.95
2023-02-05T13:07:32.026Z,10.43
2023-02-05T13:10:04.521Z,7.03
2023-02-05T13:12:39.431Z,11.57
2023-02-05T13:15:28.595Z,8.13
2023-02-05T13:18:42.284Z,7.78
2023-02-05T13:21:36.445Z,4.70
2023-02-05T13:25:08.726Z,6.97
2023-02-05T13:28:01.288Z,7.78
2023-02-05T13:30:45.651Z,14.77
2023-02-05T13:33:12.968Z,11.95
2023-02-05T13:36:17.523Z,7.13
2023-02-05T13:38:54.207Z,10.95
2023-02-05T13:42:01.559Z,10.10
2023-02-05T13:44:44.125Z,8.85
2023-02-05T13:47:32.917Z,9.65
2023-02-05T13:50:06.148Z,7.07
2023-02-05T13:53:04.121Z,10.82
2023-02-05T13:55:52.414Z,4.43
2023-02-05T13:58:26.041Z,6.35
2023-02-05T14:00:56.795Z,11.80
2023-02-05T14:03:38.280Z,6.93
2023-02-05T14:06:13.139Z,8.93
2023-02-05T14:08:40.657Z,7.97
2023-02-05T14:11:08.426Z,8.45
2023-02-05T14:13:36.327Z,8.15
2023-02-05T14:16:25.168Z,13.05
2023-02-05T14:19:01.568Z,6.45
2023-02-05T14:21:31.933Z,7.38
2023-02-05T14:24:21.942Z,6.10
2023-02-05T14:26:52.536Z,8.07
2023-02-05T14:29:44.819Z,15.13
2023-02-05T14:34:43.624Z,5.88
2023-02-05T14:37:34.447Z,10.02
2023-02-05T14:40:27.171Z,4.60
2023-02-05T14:43:13.831Z,4.72
2023-02-05T14:45:51.425Z,10.13
2023-02-05T14:48:24.639Z,9.63
2023-02-05T14:51:17.174Z,5.38
2023-02-05T14:53:58.791Z,6.65
2023-02-05T14:56:50.915Z,11.40
2023-02-05T14:59:51.325Z,7.88
2023-02-05T15:02:59.342Z,13.57
2023-02-05T15:05:43.656Z,8.98
2023-02-05T15:08:40.338Z,9.50
2023-02-05T15:11:35.958Z,9.80
2023-02-05T15:14:22.857Z,13.95
2023-02-05T15:17:10.624Z,8.15
2023-02-05T15:19:55.556Z,8.65
2023-02-05T15:22:52.575Z,9.38
2023-02-05T15:25:23.747Z,9.32
2023-02-05T15:27:56.417Z,18.20
2023-02-05T15:30:28.809Z,12.60
2023-02-05T15:33:09.562Z,15.85
2023-02-05T15:35:42.428Z,19.90
2023-02-05T15:38:29.272Z,11.05
2023-02-05T15:40:57.708Z,13.68
2023-02-05T15:43:27.047Z,10.15
2023-02-05T15:46:05.394Z,7.18
2023-02-05T15:48:35.643Z,5.20
2023-02-05T15:51:05.319Z,5.78
2023-02-05T15:53:44.098Z,7.22
2023-02-05T15:56:20.059Z,7.95
2023-02-05T15:59:01.190Z,16.00
2023-02-05T16:01:47.025Z,9.98
2023-02-05T16:04:28.302Z,15.38
2023-02-05T16:06:55.567Z,26.25
2023-02-05T16:09:25.477Z,11.70
2023-02-05T16:11:54.159Z,8.18
2023-02-05T16:14:28.597Z,13.40
2023-02-05T16:17:10.738Z,21.48
2023-02-05T16:19:54.351Z,13.35
2023-02-05T16:22:24.591Z,10.75
2023-02-05T16:24:56.205Z,14.63
2023-02-05T16:27:40.610Z,15.50
2023-02-05T16:30:17.203Z,17.60
2023-02-05T16:32:53.436Z,7.65
2023-02-05T16:35:29.487Z,11.07
2023-02-05T16:38:01.399Z,15.25
2023-02-05T16:40:36.843Z,12.18
2023-02-05T16:43:25.796Z,9.30
2023-02-05T16:46:08.446Z,19.52
2023-02-05T16:48:52.489Z,8.10
2023-02-05T16:51:45.685Z,11.50
2023-02-05T16:54:15.856Z,15.05
2023-02-05T16:56:47.870Z,11.63
2023-02-05T17:01:53.790Z,13.20
2023-02-05T17:04:28.577Z,15.18
2023-02-05T17:07:07.047Z,22.27
2023-02-05T17:09:37.429Z,28.70
2023-02-05T17:12:19.454Z,9.68
2023-02-05T17:17:25.653Z,20.30
2023-02-05T17:20:17.263Z,17.63
2023-02-05T17:23:11.555Z,9.98
2023-02-05T17:25:55.657Z,23.05
2023-02-05T17:28:26.182Z,23.90
2023-02-05T17:30:57.965Z,17.10
2023-02-05T17:33:33.738Z,12.93
2023-02-05T17:36:01.106Z,10.88
2023-02-05T17:38:31.206Z,7.40
2023-02-05T17:41:17.079Z,23.27
2023-02-05T17:43:44.358Z,12.60
2023-02-05T17:46:19.389Z,12.48
2023-02-05T17:48:47.762Z,17.70
2023-02-05T17:51:24.712Z,22.02
2023-02-05T17:53:52.530Z,16.75
2023-02-05T17:56:20.764Z,17.35
2023-02-05T17:58:49.896Z,17.88
2023-02-05T18:01:17.273Z,27.50
2023-02-05T18:03:47.079Z,17.90
2023-02-05T18:06:20.367Z,9.38
2023-02-05T18:08:47.493Z,14.15
2023-02-05T18:11:14.574Z,12.95
2023-02-05T18:13:41.779Z,15.65
2023-02-05T18:16:12.371Z,14.95
2023-02-05T18:18:40.064Z,9.07
2023-02-05T18:21:07.611Z,16.30
2023-02-05T18:23:37.693Z,18.50
2023-02-05T18:26:06.075Z,15.43
2023-02-05T18:28:33.390Z,12.98
2023-02-05T18:31:03.296Z,16.80
2023-02-05T18:33:30.668Z,9.90
2023-02-05T18:36:15.405Z,23.25
2023-02-05T18:38:46.447Z,16.60
2023-02-05T18:41:19.076Z,14.50
2023-02-05T18:43:46.229Z,12.82
2023-02-05T18:46:21.254Z,10.13
2023-02-05T18:48:51.528Z,27.23
2023-02-05T18:51:21.850Z,25.23
2023-02-05T18:53:49.343Z,15.05
2023-02-05T18:56:25.214Z,20.38
2023-02-05T18:58:56.530Z,13.85
2023-02-05T19:01:26.721Z,13.23
2023-02-05T19:03:54.797Z,21.08
2023-02-05T19:06:22.393Z,10.10
2023-02-05T19:08:50.258Z,9.27
2023-02-05T19:11:24.236Z,10.65
2023-02-05T19:14:01.453Z,18.55
2023-02-05T19:16:30.958Z,13.90
2023-02-05T19:18:58.485Z,16.80
2023-02-05T19:21:30.632Z,16.50
2023-02-05T19:24:01.057Z,17.60
2023-02-05T19:26:29.552Z,17.45
2023-02-05T19:29:01.736Z,9.50
2023-02-05T19:31:31.580Z,11.30
2023-02-05T19:34:00.154Z,15.40
2023-02-05T19:36:29.113Z,10.52
2023-02-05T19:38:56.715Z,14.02
2023-02-05T19:41:26.415Z,13.30
2023-02-05T19:43:56.440Z,11.80
2023-02-05T19:46:26.851Z,14.02
2023-02-05T19:49:00.071Z,15.55
2023-02-05T19:51:27.943Z,8.93
2023-02-05T19:53:57.577Z,14.15
2023-02-05T19:56:25.410Z,12.02
2023-02-05T19:58:54.882Z,19.00
2023-02-05T20:01:31.065Z,10.95
2023-02-05T20:04:21.643Z,12.93
2023-02-05T20:06:48.965Z,12.13
2023-02-05T20:09:16.899Z,15.57
2023-02-05T20:11:47.356Z,12.00
2023-02-05T20:14:16.133Z,14.02
2023-02-05T20:16:45.159Z,14.65
2023-02-05T20:19:14.729Z,12.45
2023-02-05T20:21:43.770Z,25.00
2023-02-05T20:24:12.705Z,17.90
2023-02-05T20:26:39.957Z,14.85
2023-02-05T20:29:26.760Z,16.02
2023-02-05T20:31:55.033Z,9.82
2023-02-05T20:34:26.075Z,12.73
2023-02-05T20:36:59.047Z,15.13
2023-02-05T20:39:33.595Z,23.80
2023-02-05T20:42:02.780Z,22.00
2023-02-05T20:44:32.258Z,17.73
2023-02-05T20:46:59.539Z,10.65
2023-02-05T20:49:26.869Z,16.55
2023-02-05T20:51:54.753Z,34.97
2023-02-05T20:54:23.141Z,16.25
2023-02-05T20:56:57.069Z,17.67
2023-02-05T20:59:26.647Z,14.65
2023-02-05T21:01:55.463Z,20.05
2023-02-05T21:04:22.929Z,13.85
2023-02-05T21:06:50.344Z,7.25
2023-02-05T21:09:17.811Z,10.35
2023-02-05T21:11:45.318Z,11.57
2023-02-05T21:14:19.498Z,19.20
2023-02-05T21:16:46.747Z,11.70
2023-02-05T21:19:14.050Z,14.57
2023-02-05T21:21:41.433Z,15.15
2023-02-05T21:24:13.944Z,29.15
2023-02-05T21:26:44.256Z,17.88
2023-02-05T21:29:17.259Z,13.45
2023-02-05T21:31:48.035Z,12.73
2023-02-05T21:34:20.248Z,7.75
2023-02-05T21:36:49.554Z,20.25
2023-02-05T21:39:17.298Z,13.30
2023-02-05T21:41:45.779Z,11.45
2023-02-05T21:44:15.006Z,15.55
2023-02-05T21:46:42.317Z,20.08
2023-02-05T21:49:12.120Z,8.10
2023-02-05T21:51:42.600Z,15.30
2023-02-05T21:54:11.806Z,10.98
2023-02-05T21:56:43.440Z,21.38
2023-02-05T21:59:12.360Z,12.32
2023-02-05T22:01:41.639Z,19.55
2023-02-05T22:04:15.422Z,15.95
2023-02-05T22:06:43.705Z,15.20
2023-02-05T22:09:13.749Z,15.40
2023-02-05T22:11:41.715Z,13.10
2023-02-05T22:14:12.834Z,14.30
2023-02-05T22:16:44.426Z,10.35
2023-02-05T22:19:11.944Z,10.15
2023-02-05T22:21:42.002Z,14.90
2023-02-05T22:24:15.820Z,22.27
2023-02-05T22:26:43.392Z,17.63
2023-02-05T22:29:13.369Z,22.88
2023-02-05T22:31:41.385Z,12.35
2023-02-05T22:34:09.857Z,23.65
2023-02-05T22:36:37.703Z,6.78
2023-02-05T22:39:07.193Z,12.65
2023-02-05T22:41:36.731Z,19.15
2023-02-05T22:44:05.656Z,9.20
2023-02-05T22:46:36.436Z,27.52
2023-02-05T22:49:04.030Z,13.13
2023-02-05T22:51:36.350Z,10.70
2023-02-05T22:54:14.901Z,10.18
2023-02-05T22:56:42.231Z,16.10
2023-02-05T22:59:18.420Z,6.53
2023-02-05T23:01:45.776Z,15.70
2023-02-05T23:04:12.813Z,16.58
2023-02-05T23:06:43.614Z,13.15
2023-02-05T23:09:13.871Z,17.58
2023-02-05T23:11:41.908Z,5.75
2023-02-05T23:14:09.750Z,10.27
2023-02-05T23:16:41.886Z,8.63
2023-02-05T23:19:14.786Z,16.05
2023-02-05T23:21:42.246Z,12.65
2023-02-05T23:24:09.675Z,21.30
2023-02-05T23:26:44.379Z,13.90
2023-02-05T23:29:14.083Z,29.20
2023-02-05T23:31:41.899Z,25.85
2023-02-05T23:34:09.544Z,9.02
2023-02-05T23:36:36.854Z,11.48
2023-02-05T23:39:04.529Z,9.88
2023-02-05T23:41:37.545Z,14.02
2023-02-05T23:44:17.763Z,8.35
2023-02-05T23:46:46.454Z,11.38
2023-02-05T23:49:14.372Z,10.15
2023-02-05T23:51:41.709Z,9.90
2023-02-05T23:54:10.884Z,10.98
2023-02-05T23:56:38.055Z,9.18
2023-02-05T23:59:06.174Z,11.35
